CheckWX is a tool to help pilots better visualize weather data.  It is not intended as a substitute for an official pre-flight weather briefing.

03:16:33 UTC

KOSA METAR
Mount Pleasant Regional Airport
Mount Pleasant, Texas, USA
Current

42 mins ago

KOSA 230235Z AUTO 14007KT 10SM CLR 26/21 A3001 RMK AO1 T02570212
Observed
Sep-23 @ 02:35 UTC
Wind
  • 140° at 7 KTS
Visibility
10 SM
Flight Rules
VFR
Cloud Levels
  • Clear skies
Temperature
26°C / 79°F
Dewpoint
21°C / 70°F
Humidity
74%
Altimeter
30.01" Hg
Pressure
1016.22 hPa
Previous

1 hour ago

KOSA 230215Z AUTO 13005KT 10SM CLR 26/21 A3000 RMK AO1 T02590211
Observed
Sep-23 @ 02:15 UTC
Wind
  • 130° at 5 KTS
Visibility
10 SM
Flight Rules
VFR
Cloud Levels
  • Clear skies
Temperature
26°C / 79°F
Dewpoint
21°C / 70°F
Humidity
74%
Altimeter
30" Hg
Pressure
1015.92 hPa
Previous

1 hour ago

KOSA 230155Z AUTO 13005KT 10SM CLR 26/21 A3000 RMK AO1 T02610210
Observed
Sep-23 @ 01:55 UTC
Wind
  • 130° at 5 KTS
Visibility
10 SM
Flight Rules
VFR
Cloud Levels
  • Clear skies
Temperature
26°C / 79°F
Dewpoint
21°C / 70°F
Humidity
74%
Altimeter
30" Hg
Pressure
1015.92 hPa